Time,TemperatureF,DewpointF,PressureIn,WindDirection,WindDirectionDegrees,WindSpeedMPH,WindSpeedGustMPH,Humidity,HourlyPrecipIn,Conditions,Clouds,dailyrainin,SoftwareType,DateUTC
2013-07-15 00:05:00,51.7,48.6,29.92,NW,311,0.0,0.0,89,0.00,,,0.00,Wunderground v.1.15,2013-07-15 07:05:00,
2013-07-15 00:10:00,51.7,49.2,29.92,NW,313,1.0,1.0,91,0.00,,,0.00,Wunderground v.1.15,2013-07-15 07:10:00,
2013-07-15 00:15:00,51.8,49.3,29.92,NW,321,1.0,1.0,91,0.00,,,0.00,Wunderground v.1.15,2013-07-15 07:15:00,
2013-07-15 00:20:00,51.8,49.3,29.92,NW,308,0.0,0.0,91,0.00,,,0.00,Wunderground v.1.15,2013-07-15 07:20:00,
2013-07-15 00:25:00,51.8,49.0,29.92,NW,308,0.0,0.0,90,0.00,,,0.00,Wunderground v.1.15,2013-07-15 07:25:00,
2013-07-15 00:35:00,51.4,48.6,29.92,NW,308,0.0,0.0,90,0.00,,,0.00,Wunderground v.1.15,2013-07-15 07:35:00,
2013-07-15 00:40:00,51.2,48.4,29.92,NW,308,0.0,0.0,90,0.00,,,0.00,Wunderground v.1.15,2013-07-15 07:40:00,
2013-07-15 00:45:00,50.9,48.4,29.92,NW,308,0.0,0.0,91,0.00,,,0.00,Wunderground v.1.15,2013-07-15 07:45:00,
2013-07-15 00:55:00,51.0,48.8,29.92,NNW,335,0.0,0.0,92,0.00,,,0.00,Wunderground v.1.15,2013-07-15 07:55:00,
2013-07-15 01:00:00,51.0,48.8,29.92,NNW,335,0.0,0.0,92,0.00,,,0.00,Wunderground v.1.15,2013-07-15 08:00:00,
2013-07-15 01:05:00,50.9,48.4,29.92,NNW,331,0.0,2.0,91,0.00,,,0.00,Wunderground v.1.15,2013-07-15 08:05:00,
2013-07-15 01:15:00,51.0,48.8,29.91,NW,321,1.0,2.0,92,0.00,,,0.00,Wunderground v.1.15,2013-07-15 08:15:00,
2013-07-15 01:20:00,50.9,48.7,29.91,NW,321,0.0,0.0,92,0.00,,,0.00,Wunderground v.1.15,2013-07-15 08:20:00,
2013-07-15 01:25:00,50.8,48.6,29.91,NW,321,0.0,0.0,92,0.00,,,0.00,Wunderground v.1.15,2013-07-15 08:25:00,
2013-07-15 01:35:00,50.5,48.3,29.92,NW,321,0.0,0.0,92,0.00,,,0.00,Wunderground v.1.15,2013-07-15 08:35:00,
2013-07-15 01:40:00,50.4,48.2,29.92,NW,321,0.0,0.0,92,0.00,,,0.00,Wunderground v.1.15,2013-07-15 08:40:00,
2013-07-15 01:45:00,50.1,47.9,29.92,NW,321,0.0,0.0,92,0.00,,,0.00,Wunderground v.1.15,2013-07-15 08:45:00,
2013-07-15 01:50:00,49.9,47.7,29.92,NW,321,0.0,0.0,92,0.00,,,0.00,Wunderground v.1.15,2013-07-15 08:50:00,
2013-07-15 01:55:00,49.9,48.0,29.92,SE,140,0.0,0.0,93,0.00,,,0.00,Wunderground v.1.15,2013-07-15 08:55:00,
2013-07-15 02:00:00,50.0,48.1,29.92,ESE,110,0.0,0.0,93,0.00,,,0.00,Wunderground v.1.15,2013-07-15 09:00:00,
2013-07-15 02:10:00,50.2,48.5,29.91,ESE,117,0.0,0.0,94,0.00,,,0.00,Wunderground v.1.15,2013-07-15 09:10:00,
2013-07-15 02:15:00,50.2,48.5,29.92,ESE,116,0.0,0.0,94,0.00,,,0.00,Wunderground v.1.15,2013-07-15 09:15:00,
2013-07-15 02:20:00,50.1,48.2,29.91,East,90,0.0,0.0,93,0.00,,,0.00,Wunderground v.1.15,2013-07-15 09:20:00,
2013-07-15 02:30:00,50.2,48.5,29.92,WSW,239,0.0,0.0,94,0.00,,,0.00,Wunderground v.1.15,2013-07-15 09:30:00,
2013-07-15 02:35:00,50.1,48.2,29.91,SSE,151,0.0,0.0,93,0.00,,,0.00,Wunderground v.1.15,2013-07-15 09:35:00,
2013-07-15 02:40:00,50.1,48.2,29.92,WSW,247,0.0,0.0,93,0.00,,,0.00,Wunderground v.1.15,2013-07-15 09:40:00,
2013-07-15 02:45:00,50.1,48.4,29.92,North,9,0.0,0.0,94,0.00,,,0.00,Wunderground v.1.15,2013-07-15 09:45:00,
2013-07-15 02:50:00,50.1,48.4,29.92,NNW,331,0.0,0.0,94,0.00,,,0.00,Wunderground v.1.15,2013-07-15 09:50:00,
2013-07-15 02:55:00,50.1,48.4,29.92,ESE,111,0.0,0.0,94,0.00,,,0.00,Wunderground v.1.15,2013-07-15 09:55:00,
2013-07-15 03:00:00,50.1,48.4,29.92,WSW,254,0.0,0.0,94,0.00,,,0.00,Wunderground v.1.15,2013-07-15 10:00:00,
2013-07-15 03:10:00,50.1,48.4,29.91,WSW,255,0.0,2.0,94,0.00,,,0.00,Wunderground v.1.15,2013-07-15 10:10:00,
2013-07-15 03:15:00,50.0,48.3,29.91,SSE,159,1.0,2.0,94,0.00,,,0.00,Wunderground v.1.15,2013-07-15 10:15:00,
2013-07-15 03:20:00,50.0,48.3,29.91,SE,144,1.0,1.0,94,0.00,,,0.00,Wunderground v.1.15,2013-07-15 10:20:00,
2013-07-15 03:25:00,50.0,48.3,29.91,SE,143,0.0,1.0,94,0.00,,,0.00,Wunderground v.1.15,2013-07-15 10:25:00,
2013-07-15 03:30:00,50.0,48.3,29.91,SE,144,0.0,0.0,94,0.00,,,0.00,Wunderground v.1.15,2013-07-15 10:30:00,
2013-07-15 03:35:00,50.1,48.4,29.91,SSE,149,0.0,0.0,94,0.00,,,0.00,Wunderground v.1.15,2013-07-15 10:35:00,
2013-07-15 03:45:00,50.2,48.5,29.91,NW,312,1.0,2.0,94,0.00,,,0.00,Wunderground v.1.15,2013-07-15 10:45:00,
2013-07-15 03:50:00,50.2,48.5,29.91,WSW,252,1.0,2.0,94,0.00,,,0.00,Wunderground v.1.15,2013-07-15 10:50:00,
2013-07-15 04:00:00,50.1,48.4,29.91,West,265,0.0,0.0,94,0.00,,,0.00,Wunderground v.1.15,2013-07-15 11:00:00,
2013-07-15 04:10:00,50.0,48.3,29.91,WSW,254,0.0,1.0,94,0.00,,,0.00,Wunderground v.1.15,2013-07-15 11:10:00,
2013-07-15 04:15:00,49.9,48.2,29.91,WSW,256,0.0,1.0,94,0.00,,,0.00,Wunderground v.1.15,2013-07-15 11:15:00,
2013-07-15 04:20:00,49.9,48.2,29.91,WSW,254,0.0,0.0,94,0.00,,,0.00,Wunderground v.1.15,2013-07-15 11:20:00,
2013-07-15 04:25:00,49.8,48.1,29.91,ENE,76,0.0,0.0,94,0.00,,,0.00,Wunderground v.1.15,2013-07-15 11:25:00,
2013-07-15 04:35:00,49.8,48.1,29.90,SW,226,0.0,0.0,94,0.00,,,0.00,Wunderground v.1.15,2013-07-15 11:35:00,
2013-07-15 04:40:00,49.7,48.0,29.90,SE,136,0.0,0.0,94,0.00,,,0.00,Wunderground v.1.15,2013-07-15 11:40:00,
2013-07-15 04:45:00,49.8,48.1,29.91,SE,138,0.0,0.0,94,0.00,,,0.00,Wunderground v.1.15,2013-07-15 11:45:00,
2013-07-15 04:50:00,49.8,48.1,29.91,ESE,103,0.0,0.0,94,0.00,,,0.00,Wunderground v.1.15,2013-07-15 11:50:00,
2013-07-15 04:55:00,49.7,48.0,29.91,WSW,250,0.0,0.0,94,0.00,,,0.00,Wunderground v.1.15,2013-07-15 11:55:00,
2013-07-15 05:00:00,49.7,48.0,29.91,West,281,0.0,0.0,94,0.00,,,0.00,Wunderground v.1.15,2013-07-15 12:00:00,
2013-07-15 05:05:00,49.7,48.0,29.91,West,267,1.0,1.0,94,0.00,,,0.00,Wunderground v.1.15,2013-07-15 12:05:00,
2013-07-15 05:15:00,49.8,48.4,29.91,WNW,300,1.0,1.0,95,0.00,,,0.00,Wunderground v.1.15,2013-07-15 12:15:00,
2013-07-15 05:20:00,49.7,48.3,29.91,WSW,250,0.0,2.0,95,0.00,,,0.00,Wunderground v.1.15,2013-07-15 12:20:00,
2013-07-15 05:25:00,49.8,48.4,29.91,WSW,244,0.0,2.0,95,0.00,,,0.00,Wunderground v.1.15,2013-07-15 12:25:00,
2013-07-15 05:30:00,49.9,48.5,29.91,WSW,250,0.0,1.0,95,0.00,,,0.00,Wunderground v.1.15,2013-07-15 12:30:00,
2013-07-15 05:40:00,49.9,48.2,29.91,WSW,258,1.0,1.0,94,0.00,,,0.00,Wunderground v.1.15,2013-07-15 12:40:00,
2013-07-15 05:45:00,49.9,48.2,29.91,WNW,292,1.0,1.0,94,0.00,,,0.00,Wunderground v.1.15,2013-07-15 12:45:00,
2013-07-15 05:50:00,49.9,48.2,29.91,West,275,1.0,1.0,94,0.00,,,0.00,Wunderground v.1.15,2013-07-15 12:50:00,
2013-07-15 06:00:00,49.8,48.1,29.91,WSW,258,1.0,1.0,94,0.00,,,0.00,Wunderground v.1.15,2013-07-15 13:00:00,
2013-07-15 06:10:00,49.8,48.1,29.91,WSW,256,0.0,0.0,94,0.00,,,0.00,Wunderground v.1.15,2013-07-15 13:10:00,
2013-07-15 06:15:00,49.8,48.1,29.90,WSW,254,0.0,0.0,94,0.00,,,0.00,Wunderground v.1.15,2013-07-15 13:15:00,
2013-07-15 06:20:00,49.7,48.0,29.91,WSW,251,0.0,0.0,94,0.00,,,0.00,Wunderground v.1.15,2013-07-15 13:20:00,
2013-07-15 06:30:00,49.7,48.0,29.91,ENE,74,0.0,0.0,94,0.00,,,0.00,Wunderground v.1.15,2013-07-15 13:30:00,
2013-07-15 06:35:00,49.7,48.0,29.91,SSW,209,0.0,3.0,94,0.00,,,0.00,Wunderground v.1.15,2013-07-15 13:35:00,
2013-07-15 06:40:00,49.7,48.0,29.91,NNW,327,0.0,0.0,94,0.00,,,0.00,Wunderground v.1.15,2013-07-15 13:40:00,
2013-07-15 06:45:00,49.7,48.0,29.91,ESE,105,1.0,1.0,94,0.00,,,0.00,Wunderground v.1.15,2013-07-15 13:45:00,
2013-07-15 06:55:00,49.7,48.0,29.91,WNW,285,0.0,1.0,94,0.00,,,0.00,Wunderground v.1.15,2013-07-15 13:55:00,
2013-07-15 07:00:00,49.8,48.1,29.92,WNW,296,0.0,0.0,94,0.00,,,0.00,Wunderground v.1.15,2013-07-15 14:00:00,
2013-07-15 07:05:00,49.9,48.2,29.92,WNW,299,0.0,1.0,94,0.00,,,0.00,Wunderground v.1.15,2013-07-15 14:05:00,
2013-07-15 07:10:00,50.0,48.3,29.92,ENE,57,0.0,4.0,94,0.00,,,0.00,Wunderground v.1.15,2013-07-15 14:10:00,
2013-07-15 07:15:00,50.1,48.4,29.92,SW,221,0.0,4.0,94,0.00,,,0.00,Wunderground v.1.15,2013-07-15 14:15:00,
2013-07-15 07:20:00,50.2,48.5,29.92,SW,236,0.0,0.0,94,0.00,,,0.00,Wunderground v.1.15,2013-07-15 14:20:00,
2013-07-15 07:30:00,50.5,48.6,29.92,South,186,1.0,1.0,93,0.00,,,0.00,Wunderground v.1.15,2013-07-15 14:30:00,
2013-07-15 07:35:00,50.6,48.7,29.92,South,177,1.0,1.0,93,0.00,,,0.00,Wunderground v.1.15,2013-07-15 14:35:00,
2013-07-15 07:40:00,50.7,48.7,29.92,ESE,107,0.0,0.0,93,0.00,,,0.00,Wunderground v.1.15,2013-07-15 14:40:00,
2013-07-15 07:45:00,50.7,48.7,29.93,ESE,113,0.0,1.0,93,0.00,,,0.00,Wunderground v.1.15,2013-07-15 14:45:00,
2013-07-15 07:55:00,50.9,48.9,29.92,WSW,246,1.0,3.0,93,0.00,,,0.00,Wunderground v.1.15,2013-07-15 14:55:00,
2013-07-15 08:00:00,51.1,49.1,29.93,ESE,120,1.0,1.0,93,0.00,,,0.00,Wunderground v.1.15,2013-07-15 15:00:00,
2013-07-15 08:05:00,51.2,49.2,29.93,SSE,159,1.0,1.0,93,0.00,,,0.00,Wunderground v.1.15,2013-07-15 15:05:00,
2013-07-15 08:10:00,51.3,49.3,29.92,West,261,1.0,1.0,93,0.00,,,0.00,Wunderground v.1.15,2013-07-15 15:10:00,
2013-07-15 08:15:00,51.5,49.5,29.92,West,275,1.0,1.0,93,0.00,,,0.00,Wunderground v.1.15,2013-07-15 15:15:00,
2013-07-15 08:30:00,51.9,49.6,29.93,WSW,256,1.0,4.0,92,0.00,,,0.00,Wunderground v.1.15,2013-07-15 15:30:00,
2013-07-15 08:35:00,52.1,49.8,29.93,WSW,256,1.0,4.0,92,0.00,,,0.00,Wunderground v.1.15,2013-07-15 15:35:00,
2013-07-15 08:40:00,52.1,49.6,29.93,West,262,1.0,1.0,91,0.00,,,0.00,Wunderground v.1.15,2013-07-15 15:40:00,
2013-07-15 08:45:00,52.1,49.6,29.93,WSW,257,1.0,1.0,91,0.00,,,0.00,Wunderground v.1.15,2013-07-15 15:45:00,
2013-07-15 08:55:00,52.4,49.8,29.93,South,173,1.0,2.0,91,0.00,,,0.00,Wunderground v.1.15,2013-07-15 15:55:00,
2013-07-15 09:00:00,52.4,49.8,29.93,WSW,255,1.0,1.0,91,0.00,,,0.00,Wunderground v.1.15,2013-07-15 16:00:00,
2013-07-15 09:05:00,52.6,50.0,29.93,NW,323,1.0,1.0,91,0.00,,,0.00,Wunderground v.1.15,2013-07-15 16:05:00,
2013-07-15 09:15:00,52.9,50.0,29.93,WSW,251,1.0,3.0,90,0.00,,,0.00,Wunderground v.1.15,2013-07-15 16:15:00,
2013-07-15 09:20:00,53.1,49.9,29.93,WSW,241,1.0,1.0,89,0.00,,,0.00,Wunderground v.1.15,2013-07-15 16:20:00,
2013-07-15 09:25:00,53.6,50.4,29.93,ESE,119,1.0,1.0,89,0.00,,,0.00,Wunderground v.1.15,2013-07-15 16:25:00,
2013-07-15 09:35:00,53.4,49.9,29.94,WSW,247,2.0,2.0,88,0.00,,,0.00,Wunderground v.1.15,2013-07-15 16:35:00,
2013-07-15 09:45:00,53.3,49.8,29.93,East,88,1.0,2.0,88,0.00,,,0.00,Wunderground v.1.15,2013-07-15 16:45:00,
2013-07-15 09:50:00,53.6,50.1,29.93,WSW,256,1.0,1.0,88,0.00,,,0.00,Wunderground v.1.15,2013-07-15 16:50:00,
2013-07-15 10:00:00,54.1,50.3,29.93,WSW,251,1.0,2.0,87,0.00,,,0.00,Wunderground v.1.15,2013-07-15 17:00:00,
2013-07-15 10:05:00,54.1,50.3,29.93,WSW,252,1.0,3.0,87,0.00,,,0.00,Wunderground v.1.15,2013-07-15 17:05:00,
2013-07-15 10:10:00,54.2,50.4,29.93,WSW,257,1.0,1.0,87,0.00,,,0.00,Wunderground v.1.15,2013-07-15 17:10:00,
2013-07-15 10:15:00,54.2,50.4,29.93,WSW,256,1.0,1.0,87,0.00,,,0.00,Wunderground v.1.15,2013-07-15 17:15:00,
2013-07-15 10:20:00,54.2,50.4,29.93,WSW,254,1.0,2.0,87,0.00,,,0.00,Wunderground v.1.15,2013-07-15 17:20:00,
2013-07-15 10:30:00,54.2,50.4,29.93,WSW,257,2.0,2.0,87,0.00,,,0.00,Wunderground v.1.15,2013-07-15 17:30:00,
2013-07-15 10:35:00,55.0,50.9,29.93,SW,225,2.0,2.0,86,0.00,,,0.00,Wunderground v.1.15,2013-07-15 17:35:00,
2013-07-15 10:40:00,56.1,51.3,29.93,WSW,256,1.0,1.0,84,0.00,,,0.00,Wunderground v.1.15,2013-07-15 17:40:00,
2013-07-15 10:45:00,57.5,51.7,29.93,SE,132,1.0,2.0,81,0.00,,,0.00,Wunderground v.1.15,2013-07-15 17:45:00,
2013-07-15 10:55:00,58.8,52.0,29.92,WSW,250,1.0,1.0,78,0.00,,,0.00,Wunderground v.1.15,2013-07-15 17:55:00,
2013-07-15 11:00:00,59.4,52.2,29.92,WSW,246,1.0,1.0,77,0.00,,,0.00,Wunderground v.1.15,2013-07-15 18:00:00,
2013-07-15 11:20:00,60.0,51.7,29.92,WSW,248,1.0,4.0,74,0.00,,,0.00,Wunderground v.1.15,2013-07-15 18:20:00,
2013-07-15 11:25:00,60.3,52.3,29.92,WSW,242,1.0,4.0,75,0.00,,,0.00,Wunderground v.1.15,2013-07-15 18:25:00,
2013-07-15 11:30:00,60.6,52.3,29.92,WSW,256,2.0,2.0,74,0.00,,,0.00,Wunderground v.1.15,2013-07-15 18:30:00,
2013-07-15 11:35:00,60.8,52.5,29.92,WNW,287,2.0,2.0,74,0.00,,,0.00,Wunderground v.1.15,2013-07-15 18:35:00,
2013-07-15 11:40:00,60.5,52.2,29.92,West,273,1.0,1.0,74,0.00,,,0.00,Wunderground v.1.15,2013-07-15 18:40:00,
2013-07-15 11:45:00,60.6,52.3,29.92,WSW,246,1.0,4.0,74,0.00,,,0.00,Wunderground v.1.15,2013-07-15 18:45:00,
2013-07-15 11:55:00,61.7,52.6,29.92,South,181,2.0,4.0,72,0.00,,,0.00,Wunderground v.1.15,2013-07-15 18:55:00,
2013-07-15 12:00:00,62.4,52.9,29.92,SW,229,2.0,3.0,71,0.00,,,0.00,Wunderground v.1.15,2013-07-15 19:00:00,
2013-07-15 12:05:00,62.5,52.6,29.92,WSW,253,1.0,3.0,70,0.00,,,0.00,Wunderground v.1.15,2013-07-15 19:05:00,
2013-07-15 12:10:00,62.8,52.9,29.92,WSW,239,1.0,3.0,70,0.00,,,0.00,Wunderground v.1.15,2013-07-15 19:10:00,
2013-07-15 12:15:00,62.3,52.4,29.92,WSW,252,2.0,3.0,70,0.00,,,0.00,Wunderground v.1.15,2013-07-15 19:15:00,
2013-07-15 12:25:00,62.9,53.0,29.92,WNW,287,1.0,2.0,70,0.00,,,0.00,Wunderground v.1.15,2013-07-15 19:25:00,
2013-07-15 12:30:00,63.1,52.8,29.92,WSW,258,1.0,1.0,69,0.00,,,0.00,Wunderground v.1.15,2013-07-15 19:30:00,
2013-07-15 12:40:00,63.7,52.5,29.92,WSW,257,1.0,1.0,67,0.00,,,0.00,Wunderground v.1.15,2013-07-15 19:40:00,
2013-07-15 12:45:00,64.2,52.6,29.92,West,263,1.0,5.0,66,0.00,,,0.00,Wunderground v.1.15,2013-07-15 19:45:00,
2013-07-15 12:50:00,64.7,52.7,29.92,NW,321,1.0,1.0,65,0.00,,,0.00,Wunderground v.1.15,2013-07-15 19:50:00,
2013-07-15 13:05:00,65.0,52.5,29.92,West,262,2.0,2.0,64,0.00,,,0.00,Wunderground v.1.15,2013-07-15 20:05:00,
2013-07-15 13:10:00,65.1,52.6,29.91,SW,229,2.0,2.0,64,0.00,,,0.00,Wunderground v.1.15,2013-07-15 20:10:00,
2013-07-15 13:15:00,65.5,53.4,29.91,WSW,246,2.0,2.0,65,0.00,,,0.00,Wunderground v.1.15,2013-07-15 20:15:00,
2013-07-15 13:25:00,66.2,53.2,29.91,WSW,248,1.0,3.0,63,0.00,,,0.00,Wunderground v.1.15,2013-07-15 20:25:00,
2013-07-15 13:30:00,66.7,53.3,29.91,West,275,2.0,2.0,62,0.00,,,0.00,Wunderground v.1.15,2013-07-15 20:30:00,
2013-07-15 13:35:00,67.1,53.6,29.91,WSW,254,1.0,2.0,62,0.00,,,0.00,Wunderground v.1.15,2013-07-15 20:35:00,
2013-07-15 13:40:00,67.9,54.0,29.90,ESE,110,1.0,1.0,61,0.00,,,0.00,Wunderground v.1.15,2013-07-15 20:40:00,
2013-07-15 13:50:00,68.9,53.5,29.90,WSW,258,1.0,2.0,58,0.00,,,0.00,Wunderground v.1.15,2013-07-15 20:50:00,
2013-07-15 14:00:00,68.7,53.8,29.90,ESE,123,1.0,1.0,59,0.00,,,0.00,Wunderground v.1.15,2013-07-15 21:00:00,
2013-07-15 14:05:00,69.4,54.0,29.90,WSW,247,1.0,2.0,58,0.00,,,0.00,Wunderground v.1.15,2013-07-15 21:05:00,
2013-07-15 14:10:00,69.4,53.5,29.90,West,267,1.0,1.0,57,0.00,,,0.00,Wunderground v.1.15,2013-07-15 21:10:00,
2013-07-15 14:15:00,69.0,53.6,29.90,West,271,2.0,2.0,58,0.00,,,0.00,Wunderground v.1.15,2013-07-15 21:15:00,
2013-07-15 14:25:00,68.7,53.8,29.90,WNW,286,1.0,2.0,59,0.00,,,0.00,Wunderground v.1.15,2013-07-15 21:25:00,
2013-07-15 14:35:00,68.7,53.8,29.89,West,268,1.0,5.0,59,0.00,,,0.00,Wunderground v.1.15,2013-07-15 21:35:00,
2013-07-15 14:40:00,68.3,53.9,29.89,East,92,2.0,2.0,60,0.00,,,0.00,Wunderground v.1.15,2013-07-15 21:40:00,
2013-07-15 14:45:00,68.7,54.3,29.89,West,273,1.0,2.0,60,0.00,,,0.00,Wunderground v.1.15,2013-07-15 21:45:00,
2013-07-15 14:55:00,67.4,53.5,29.89,WSW,253,2.0,4.0,61,0.00,,,0.00,Wunderground v.1.15,2013-07-15 21:55:00,
2013-07-15 15:00:00,66.9,53.9,29.89,WSW,241,2.0,2.0,63,0.00,,,0.00,Wunderground v.1.15,2013-07-15 22:00:00,
2013-07-15 15:05:00,67.0,54.0,29.89,SE,143,1.0,2.0,63,0.00,,,0.00,Wunderground v.1.15,2013-07-15 22:05:00,
2013-07-15 15:10:00,67.7,54.6,29.89,SSW,210,1.0,1.0,63,0.00,,,0.00,Wunderground v.1.15,2013-07-15 22:10:00,
2013-07-15 15:15:00,67.8,54.3,29.89,WSW,254,1.0,3.0,62,0.00,,,0.00,Wunderground v.1.15,2013-07-15 22:15:00,
2013-07-15 15:25:00,67.7,54.2,29.88,WSW,242,1.0,4.0,62,0.00,,,0.00,Wunderground v.1.15,2013-07-15 22:25:00,
2013-07-15 15:35:00,67.9,54.4,29.88,SE,142,1.0,3.0,62,0.00,,,0.00,Wunderground v.1.15,2013-07-15 22:35:00,
2013-07-15 15:45:00,68.4,54.0,29.88,WSW,257,1.0,1.0,60,0.00,,,0.00,Wunderground v.1.15,2013-07-15 22:45:00,
2013-07-15 15:55:00,69.0,54.5,29.87,SSE,153,1.0,2.0,60,0.00,,,0.00,Wunderground v.1.15,2013-07-15 22:55:00,
2013-07-15 16:00:00,69.1,54.2,29.87,NW,305,1.0,1.0,59,0.00,,,0.00,Wunderground v.1.15,2013-07-15 23:00:00,
2013-07-15 16:10:00,68.8,53.9,29.87,SE,128,1.0,1.0,59,0.00,,,0.00,Wunderground v.1.15,2013-07-15 23:10:00,
2013-07-15 16:20:00,68.8,53.9,29.87,West,276,1.0,3.0,59,0.00,,,0.00,Wunderground v.1.15,2013-07-15 23:20:00,
2013-07-15 16:25:00,68.9,54.0,29.87,West,281,1.0,3.0,59,0.00,,,0.00,Wunderground v.1.15,2013-07-15 23:25:00,
2013-07-15 16:30:00,68.6,52.8,29.86,West,265,1.0,1.0,57,0.00,,,0.00,Wunderground v.1.15,2013-07-15 23:30:00,
2013-07-15 16:35:00,68.0,53.6,29.87,West,274,1.0,1.0,60,0.00,,,0.00,Wunderground v.1.15,2013-07-15 23:35:00,
2013-07-15 16:45:00,67.1,53.2,29.87,WSW,255,1.0,1.0,61,0.00,,,0.00,Wunderground v.1.15,2013-07-15 23:45:00,
2013-07-15 16:50:00,66.7,53.3,29.86,West,276,1.0,1.0,62,0.00,,,0.00,Wunderground v.1.15,2013-07-15 23:50:00,
2013-07-15 17:00:00,66.8,53.4,29.86,SW,234,1.0,2.0,62,0.00,,,0.00,Wunderground v.1.15,2013-07-16 00:00:00,
2013-07-15 17:05:00,66.8,53.4,29.86,NW,316,1.0,2.0,62,0.00,,,0.00,Wunderground v.1.15,2013-07-16 00:05:00,
2013-07-15 17:10:00,66.4,53.4,29.86,East,99,1.0,1.0,63,0.00,,,0.00,Wunderground v.1.15,2013-07-16 00:10:00,
2013-07-15 17:15:00,65.6,53.1,29.86,West,263,1.0,2.0,64,0.00,,,0.00,Wunderground v.1.15,2013-07-16 00:15:00,
2013-07-15 17:20:00,65.4,53.3,29.86,WSW,248,1.0,1.0,65,0.00,,,0.00,Wunderground v.1.15,2013-07-16 00:20:00,
2013-07-15 17:35:00,64.7,53.1,29.86,West,261,1.0,1.0,66,0.00,,,0.00,Wunderground v.1.15,2013-07-16 00:35:00,
2013-07-15 17:45:00,64.0,52.8,29.86,WSW,257,1.0,3.0,67,0.00,,,0.00,Wunderground v.1.15,2013-07-16 00:45:00,
2013-07-15 17:55:00,64.1,52.9,29.85,NNW,345,1.0,3.0,67,0.00,,,0.00,Wunderground v.1.15,2013-07-16 00:55:00,
2013-07-15 18:05:00,63.7,52.5,29.85,West,271,1.0,1.0,67,0.00,,,0.00,Wunderground v.1.15,2013-07-16 01:05:00,
2013-07-15 18:10:00,63.6,52.4,29.85,SW,235,1.0,1.0,67,0.00,,,0.00,Wunderground v.1.15,2013-07-16 01:10:00,
2013-07-15 18:20:00,62.8,52.5,29.85,West,273,1.0,1.0,69,0.00,,,0.00,Wunderground v.1.15,2013-07-16 01:20:00,
2013-07-15 18:25:00,62.3,52.0,29.85,West,259,1.0,2.0,69,0.00,,,0.00,Wunderground v.1.15,2013-07-16 01:25:00,
2013-07-15 18:30:00,62.0,52.1,29.85,West,271,1.0,1.0,70,0.00,,,0.00,Wunderground v.1.15,2013-07-16 01:30:00,
2013-07-15 18:35:00,61.3,52.2,29.85,SW,232,1.0,1.0,72,0.00,,,0.00,Wunderground v.1.15,2013-07-16 01:35:00,
2013-07-15 18:45:00,60.6,51.9,29.85,NW,325,1.0,1.0,73,0.00,,,0.00,Wunderground v.1.15,2013-07-16 01:45:00,
2013-07-15 18:50:00,60.5,51.8,29.85,WNW,293,1.0,1.0,73,0.00,,,0.00,Wunderground v.1.15,2013-07-16 01:50:00,
2013-07-15 18:55:00,60.3,52.0,29.85,West,273,1.0,1.0,74,0.00,,,0.00,Wunderground v.1.15,2013-07-16 01:55:00,
2013-07-15 19:05:00,59.2,51.6,29.85,West,264,1.0,3.0,76,0.00,,,0.00,Wunderground v.1.15,2013-07-16 02:05:00,
2013-07-15 19:10:00,58.2,51.4,29.85,WNW,294,2.0,2.0,78,0.00,,,0.00,Wunderground v.1.15,2013-07-16 02:10:00,
2013-07-15 19:20:00,57.1,51.3,29.86,West,273,1.0,1.0,81,0.00,,,0.00,Wunderground v.1.15,2013-07-16 02:20:00,
2013-07-15 19:30:00,56.0,50.9,29.86,West,263,2.0,2.0,83,0.00,,,0.00,Wunderground v.1.15,2013-07-16 02:30:00,
2013-07-15 19:50:00,55.3,50.9,29.86,West,267,1.0,1.0,85,0.00,,,0.00,Wunderground v.1.15,2013-07-16 02:50:00,
2013-07-15 19:55:00,55.2,51.1,29.86,WSW,256,1.0,1.0,86,0.00,,,0.00,Wunderground v.1.15,2013-07-16 02:55:00,
2013-07-15 20:05:00,55.0,50.9,29.86,NNW,334,1.0,1.0,86,0.00,,,0.00,Wunderground v.1.15,2013-07-16 03:05:00,
2013-07-15 20:10:00,54.8,50.7,29.87,WSW,250,1.0,2.0,86,0.00,,,0.00,Wunderground v.1.15,2013-07-16 03:10:00,
2013-07-15 20:15:00,54.6,50.8,29.86,West,266,1.0,2.0,87,0.00,,,0.00,Wunderground v.1.15,2013-07-16 03:15:00,
2013-07-15 20:25:00,54.4,50.9,29.87,SW,225,1.0,2.0,88,0.00,,,0.00,Wunderground v.1.15,2013-07-16 03:25:00,
2013-07-15 20:35:00,54.3,50.8,29.87,WSW,243,1.0,2.0,88,0.00,,,0.00,Wunderground v.1.15,2013-07-16 03:35:00,
2013-07-15 20:45:00,54.3,50.8,29.87,WSW,246,1.0,1.0,88,0.00,,,0.00,Wunderground v.1.15,2013-07-16 03:45:00,
2013-07-15 20:50:00,54.2,51.0,29.87,SW,219,1.0,1.0,89,0.00,,,0.00,Wunderground v.1.15,2013-07-16 03:50:00,
2013-07-15 21:00:00,54.2,51.0,29.87,West,276,1.0,1.0,89,0.00,,,0.00,Wunderground v.1.15,2013-07-16 04:00:00,
2013-07-15 21:05:00,54.2,51.0,29.87,West,261,1.0,1.0,89,0.00,,,0.00,Wunderground v.1.15,2013-07-16 04:05:00,
2013-07-15 21:10:00,54.1,50.9,29.87,West,264,1.0,1.0,89,0.00,,,0.00,Wunderground v.1.15,2013-07-16 04:10:00,
2013-07-15 21:15:00,54.0,50.8,29.88,NW,321,1.0,1.0,89,0.00,,,0.00,Wunderground v.1.15,2013-07-16 04:15:00,
2013-07-15 21:20:00,54.0,50.8,29.88,West,267,1.0,1.0,89,0.00,,,0.00,Wunderground v.1.15,2013-07-16 04:20:00,
2013-07-15 21:25:00,54.0,50.8,29.88,South,175,1.0,1.0,89,0.00,,,0.00,Wunderground v.1.15,2013-07-16 04:25:00,
2013-07-15 21:30:00,54.0,51.1,29.88,West,271,1.0,1.0,90,0.00,,,0.00,Wunderground v.1.15,2013-07-16 04:30:00,
2013-07-15 21:35:00,54.1,51.2,29.88,West,271,1.0,1.0,90,0.00,,,0.00,Wunderground v.1.15,2013-07-16 04:35:00,
2013-07-15 21:40:00,54.0,51.1,29.88,West,262,2.0,2.0,90,0.00,,,0.00,Wunderground v.1.15,2013-07-16 04:40:00,
2013-07-15 21:50:00,54.1,51.2,29.89,WSW,257,1.0,1.0,90,0.00,,,0.00,Wunderground v.1.15,2013-07-16 04:50:00,
2013-07-15 21:55:00,54.2,51.3,29.89,WSW,242,1.0,1.0,90,0.00,,,0.00,Wunderground v.1.15,2013-07-16 04:55:00,
2013-07-15 22:00:00,54.1,51.2,29.89,West,263,1.0,1.0,90,0.00,,,0.00,Wunderground v.1.15,2013-07-16 05:00:00,
2013-07-15 22:10:00,54.2,51.3,29.89,West,268,1.0,1.0,90,0.00,,,0.00,Wunderground v.1.15,2013-07-16 05:10:00,
2013-07-15 22:15:00,54.1,51.2,29.89,West,264,1.0,2.0,90,0.00,,,0.00,Wunderground v.1.15,2013-07-16 05:15:00,
2013-07-15 22:25:00,54.1,51.2,29.89,WSW,252,1.0,1.0,90,0.00,,,0.00,Wunderground v.1.15,2013-07-16 05:25:00,
2013-07-15 22:30:00,54.1,51.5,29.89,WNW,284,1.0,1.0,91,0.00,,,0.00,Wunderground v.1.15,2013-07-16 05:30:00,
2013-07-15 22:35:00,54.1,51.5,29.90,NNW,344,1.0,1.0,91,0.00,,,0.00,Wunderground v.1.15,2013-07-16 05:35:00,
2013-07-15 22:45:00,54.1,51.5,29.89,WSW,250,1.0,3.0,91,0.00,,,0.00,Wunderground v.1.15,2013-07-16 05:45:00,
2013-07-15 22:50:00,54.2,51.6,29.89,WSW,252,1.0,1.0,91,0.00,,,0.00,Wunderground v.1.15,2013-07-16 05:50:00,
2013-07-15 22:55:00,54.2,51.6,29.89,WSW,254,1.0,4.0,91,0.00,,,0.00,Wunderground v.1.15,2013-07-16 05:55:00,
2013-07-15 23:05:00,54.1,51.5,29.89,West,274,2.0,2.0,91,0.00,,,0.00,Wunderground v.1.15,2013-07-16 06:05:00,
2013-07-15 23:10:00,54.1,51.5,29.89,SE,127,2.0,2.0,91,0.00,,,0.00,Wunderground v.1.15,2013-07-16 06:10:00,
2013-07-15 23:20:00,54.1,51.5,29.89,West,265,1.0,2.0,91,0.00,,,0.00,Wunderground v.1.15,2013-07-16 06:20:00,
2013-07-15 23:25:00,54.0,51.4,29.89,WSW,249,1.0,2.0,91,0.00,,,0.00,Wunderground v.1.15,2013-07-16 06:25:00,
2013-07-15 23:30:00,53.9,51.3,29.89,NNW,344,1.0,1.0,91,0.00,,,0.00,Wunderground v.1.15,2013-07-16 06:30:00,
2013-07-15 23:40:00,53.9,51.3,29.89,SSE,148,2.0,2.0,91,0.00,,,0.00,Wunderground v.1.15,2013-07-16 06:40:00,
2013-07-15 23:45:00,53.9,51.3,29.89,WSW,246,1.0,2.0,91,0.00,,,0.00,Wunderground v.1.15,2013-07-16 06:45:00,
2013-07-15 23:50:00,54.0,51.4,29.89,ESE,123,1.0,1.0,91,0.00,,,0.00,Wunderground v.1.15,2013-07-16 06:50:00,